Huvudsida
METAR-TAF:

METAR-TAF

Flygplatser :

Damascus Int. Airport

Damaskus, Syrien

latitud: 33-25N, longitud: 036-31E, höjd: 608 m

Aktuellt väderrapport

Denna rapport gjordes för 56 minuter sedan, klockan 22:00 UTC
Vind 4 kt från väst/nordväst
Temperatur 13°C
Fuktighet 94%
Tryck 1019 hPa
Sikt: 5000 m
Brutna moln på en höjd av 3000 ft
Mulet på en höjd av 10000 ft
regn

METAR: OSDI 152200Z 30004KT 5000 RA BKN030 OVC100 13/12 Q1019

Tid: 00:56 (22:56 UTC)

Väderprognos

Prognos gäller från 15 kl. 18 UTC till 16 kl. 24 UTC
Vind 15 kt från syd/sydväst
Sikt: 8000 m
Spridda moln på en höjd av 3000 ft
Brutna moln på en höjd av 10000 ft
Temporärt
från 15 kl. 18 UTC till 16 kl. 18 UTC
Vind 15 kt från väst i byarna ända upp till 25 kt
Sikt: 5000 m
Få moln på en höjd av 2500 ft
Brutna moln på en höjd av 3000 ft
Mulet på en höjd av 10000 ft
åska, regn

TAF: OSDI 1518/1624 20015KT 8000 SCT030 BKN100 TEMPO 1518/1618 28015G25KT 5000 TSRA FEW025 CB BKN030 OVC100

Aktuella väderrapporter och prognoser från 4000 flygplatser (METAR- och TAF-rapporter).

De tillgängliga stationerna syns som gula och röda prickar på kartan.

För musen över prickarna för att se namnen på stationerna.

Klicka sedan för att få väderrapporter och prognoser.

För att ändra kartan: Klicka på de gröna knapparna med ett svart kors på för att zooma in; den gröna knappen med ett streck på för att zooma ut; eller på de gröna pilarna för angränsande kartor.


METAR-TAF: